Time;durP1;ratioP1;P1;durP2;ratioP2;P2;SDS_P1;SDS_P2;PMS_P1;PMS_P2;Temp;Humidity;BMP_temperature;BMP_pressure;BME280_temperature;BME280_humidity;BME280_pressure;Samples;Min_cycle;Max_cycle;Signal;HPM_P1;HPM_P2
2021/07/02 00:01:17;;;;;;;2.78;2.38;;;24.30;52.20;;;;;;5058736;28;20025;-46
2021/07/02 00:03:42;;;;;;;3.60;2.25;;;24.30;52.40;;;;;;5067044;28;20398;-49
2021/07/02 00:06:08;;;;;;;2.70;2.25;;;24.30;52.50;;;;;;5069469;28;20028;-47
2021/07/02 00:08:34;;;;;;;3.10;2.50;;;24.30;52.20;;;;;;5071151;28;20739;-49
2021/07/02 00:11:01;;;;;;;3.17;2.47;;;24.30;52.30;;;;;;5055362;28;20429;-47
2021/07/02 00:13:27;;;;;;;4.47;2.63;;;24.30;52.40;;;;;;5067396;28;20036;-46
2021/07/02 00:15:52;;;;;;;4.15;2.10;;;24.30;52.30;;;;;;5074527;28;20024;-48
2021/07/02 00:18:18;;;;;;;2.80;2.20;;;24.30;52.40;;;;;;5046258;28;20029;-47
2021/07/02 00:20:44;;;;;;;4.03;2.55;;;24.30;52.10;;;;;;5067496;28;20028;-47
2021/07/02 00:23:09;;;;;;;4.15;3.10;;;24.30;52.30;;;;;;5061545;28;20045;-49
2021/07/02 00:25:38;;;;;;;3.03;2.42;;;24.30;52.30;;;;;;5064665;28;20078;-47
2021/07/02 00:28:07;;;;;;;3.33;2.28;;;24.30;52.30;;;;;;5074295;28;20095;-50
2021/07/02 00:30:34;;;;;;;4.13;2.45;;;24.30;52.40;;;;;;5057394;28;20037;-46
2021/07/02 00:33:00;;;;;;;3.65;2.38;;;24.30;52.30;;;;;;5066700;28;20037;-53
2021/07/02 00:35:26;;;;;;;3.50;3.00;;;24.30;52.40;;;;;;5036098;28;20600;-49
2021/07/02 00:37:52;;;;;;;2.67;2.40;;;24.30;52.30;;;;;;5055187;28;20029;-50
2021/07/02 00:40:18;;;;;;;3.85;2.90;;;24.30;52.20;;;;;;5054722;28;20390;-52
2021/07/02 00:42:44;;;;;;;2.58;2.38;;;24.30;52.40;;;;;;5044244;28;20090;-48
2021/07/02 00:45:09;;;;;;;3.42;2.50;;;24.30;52.30;;;;;;5059265;28;20052;-48
2021/07/02 00:47:35;;;;;;;2.75;2.45;;;24.30;52.20;;;;;;5054561;28;20086;-51
2021/07/02 00:50:02;;;;;;;3.45;2.60;;;24.30;52.20;;;;;;5036324;28;20029;-46
2021/07/02 00:52:28;;;;;;;3.05;2.10;;;24.30;52.20;;;;;;5063547;28;20043;-46
2021/07/02 00:54:54;;;;;;;3.42;2.83;;;24.30;52.20;;;;;;5060231;28;20037;-48
2021/07/02 00:57:22;;;;;;;4.45;2.10;;;24.30;52.10;;;;;;5053768;28;20398;-49
2021/07/02 00:59:47;;;;;;;4.25;2.30;;;24.20;52.10;;;;;;5054766;28;20052;-49
2021/07/02 01:02:14;;;;;;;2.88;2.45;;;24.20;52.00;;;;;;5062142;28;20036;-46
2021/07/02 01:04:40;;;;;;;3.90;2.53;;;24.20;51.90;;;;;;5055974;28;20037;-46
2021/07/02 01:07:06;;;;;;;3.63;2.58;;;24.20;52.50;;;;;;5057343;28;20049;-52
2021/07/02 01:09:32;;;;;;;3.63;2.40;;;24.20;51.90;;;;;;5064678;28;20090;-46
2021/07/02 01:11:59;;;;;;;4.05;2.55;;;24.20;52.00;;;;;;5067533;28;20033;-47
2021/07/02 01:14:25;;;;;;;3.13;2.42;;;24.30;52.10;;;;;;5053417;28;20025;-47
2021/07/02 01:16:51;;;;;;;4.00;2.58;;;24.20;51.80;;;;;;5054324;28;20078;-47
2021/07/02 01:19:17;;;;;;;2.80;2.40;;;24.20;51.70;;;;;;5051995;28;20454;-47
2021/07/02 01:21:42;;;;;;;3.25;2.17;;;24.20;51.70;;;;;;5054885;28;20063;-51
2021/07/02 01:24:08;;;;;;;3.97;2.58;;;24.20;51.70;;;;;;5053762;28;20155;-54
2021/07/02 01:26:34;;;;;;;6.70;2.83;;;24.20;51.70;;;;;;5060831;28;20039;-50
2021/07/02 01:29:00;;;;;;;2.80;2.35;;;24.20;51.70;;;;;;5053763;28;20049;-49
2021/07/02 01:31:26;;;;;;;3.78;2.55;;;24.20;51.70;;;;;;5059647;28;20029;-53
2021/07/02 01:33:53;;;;;;;4.82;2.42;;;24.20;51.60;;;;;;5071698;28;20462;-51
2021/07/02 01:36:22;;;;;;;3.60;2.33;;;24.20;51.70;;;;;;5061661;28;20123;-49
2021/07/02 01:38:47;;;;;;;4.28;2.40;;;24.10;51.50;;;;;;5053739;28;20029;-48
2021/07/02 01:41:13;;;;;;;3.22;2.53;;;24.10;51.40;;;;;;5053802;28;20036;-49
2021/07/02 01:43:39;;;;;;;4.15;3.03;;;24.20;51.60;;;;;;5055316;28;20525;-49
2021/07/02 01:46:05;;;;;;;3.83;2.83;;;24.20;51.40;;;;;;5072969;28;20056;-46
2021/07/02 01:48:30;;;;;;;2.78;2.40;;;24.10;51.30;;;;;;5071837;28;20020;-46
2021/07/02 01:50:57;;;;;;;3.53;2.65;;;24.20;51.40;;;;;;5044625;28;20033;-46
2021/07/02 01:53:22;;;;;;;3.53;2.47;;;24.10;51.30;;;;;;5053711;28;20131;-48
2021/07/02 01:55:48;;;;;;;3.20;2.28;;;24.10;51.30;;;;;;5053263;28;20116;-46
2021/07/02 01:58:14;;;;;;;5.20;3.08;;;24.10;51.30;;;;;;5052538;28;20462;-46
2021/07/02 02:00:40;;;;;;;4.72;2.60;;;24.10;51.30;;;;;;5066987;28;20550;-49
2021/07/02 02:03:05;;;;;;;3.45;2.60;;;24.10;51.30;;;;;;5071171;28;20028;-48
2021/07/02 02:05:31;;;;;;;3.97;2.70;;;24.10;51.20;;;;;;5071601;28;20439;-48
2021/07/02 02:07:57;;;;;;;2.95;2.25;;;24.10;51.20;;;;;;5070417;28;20454;-46
2021/07/02 02:10:22;;;;;;;3.28;2.70;;;24.10;51.10;;;;;;5064371;28;20032;-47
2021/07/02 02:12:48;;;;;;;3.97;2.70;;;24.10;51.20;;;;;;5070816;28;20355;-49
2021/07/02 02:15:14;;;;;;;3.70;2.85;;;24.10;51.20;;;;;;5070755;28;20386;-48
2021/07/02 02:17:40;;;;;;;3.85;2.55;;;24.10;51.00;;;;;;5060197;28;20471;-46
2021/07/02 02:20:08;;;;;;;3.40;2.45;;;24.20;51.20;;;;;;5067414;28;20020;-48
2021/07/02 02:22:33;;;;;;;3.50;2.38;;;24.20;51.20;;;;;;5060266;28;20599;-49
2021/07/02 02:24:59;;;;;;;3.95;2.80;;;24.10;51.00;;;;;;5052906;28;20041;-46
2021/07/02 02:27:25;;;;;;;3.22;2.47;;;24.20;51.10;;;;;;5060413;28;20044;-47
2021/07/02 02:29:51;;;;;;;3.50;2.63;;;24.10;51.00;;;;;;5060720;28;20025;-51
2021/07/02 02:32:18;;;;;;;3.40;2.95;;;24.10;51.00;;;;;;5052985;28;20108;-47
2021/07/02 02:34:44;;;;;;;5.43;2.80;;;24.10;51.00;;;;;;5052710;28;20060;-46
2021/07/02 02:37:09;;;;;;;4.88;2.60;;;24.10;51.00;;;;;;5052518;28;20064;-55
2021/07/02 02:39:35;;;;;;;3.42;2.63;;;24.10;50.90;;;;;;5059759;28;20470;-51
2021/07/02 02:42:01;;;;;;;3.22;2.58;;;24.10;50.80;;;;;;5053448;28;20033;-48
2021/07/02 02:44:27;;;;;;;2.65;2.20;;;24.00;50.90;;;;;;5051553;28;20025;-53
2021/07/02 02:46:53;;;;;;;5.30;2.42;;;24.10;50.90;;;;;;5065187;28;20432;-52
2021/07/02 02:49:18;;;;;;;4.15;2.92;;;24.00;50.70;;;;;;5055583;28;20025;-53
2021/07/02 02:51:44;;;;;;;3.83;2.83;;;24.00;50.70;;;;;;5053550;28;20082;-50
2021/07/02 02:54:10;;;;;;;3.95;2.65;;;24.00;50.60;;;;;;5062187;28;20033;-54
2021/07/02 02:56:36;;;;;;;4.22;2.45;;;24.00;50.60;;;;;;5071231;28;20085;-51
2021/07/02 02:59:02;;;;;;;3.20;2.67;;;24.10;50.70;;;;;;5054416;28;20128;-52
2021/07/02 03:01:27;;;;;;;3.35;2.60;;;24.10;50.70;;;;;;5053056;28;20063;-48
2021/07/02 03:03:53;;;;;;;3.38;2.50;;;24.00;50.60;;;;;;5052056;28;20033;-51
2021/07/02 03:06:19;;;;;;;4.22;2.58;;;24.10;50.60;;;;;;5051424;28;20410;-50
2021/07/02 03:08:44;;;;;;;3.78;2.75;;;24.10;50.60;;;;;;5059819;28;20386;-54
2021/07/02 03:11:11;;;;;;;4.10;3.00;;;24.10;50.50;;;;;;5068993;28;20028;-53
2021/07/02 03:13:36;;;;;;;3.95;2.65;;;24.00;50.50;;;;;;5051234;28;20041;-50
2021/07/02 03:16:03;;;;;;;4.00;2.67;;;24.00;50.50;;;;;;5051773;28;20466;-51
2021/07/02 03:18:28;;;;;;;3.33;2.45;;;24.00;50.50;;;;;;5067527;28;20028;-50
2021/07/02 03:20:54;;;;;;;3.65;2.58;;;24.00;50.50;;;;;;5070036;28;20058;-51
2021/07/02 03:23:20;;;;;;;3.88;2.47;;;24.10;50.60;;;;;;5064248;28;20108;-49
2021/07/02 03:25:45;;;;;;;4.50;3.17;;;24.10;50.50;;;;;;5051814;28;20106;-47
2021/07/02 03:28:11;;;;;;;2.90;2.38;;;24.10;50.50;;;;;;5052756;28;20469;-55
2021/07/02 03:30:37;;;;;;;3.47;2.35;;;24.00;50.40;;;;;;5052423;28;20476;-49
2021/07/02 03:33:02;;;;;;;3.22;2.72;;;24.00;50.40;;;;;;5051743;28;20033;-50
2021/07/02 03:35:28;;;;;;;3.88;2.67;;;24.10;50.40;;;;;;5051625;28;20024;-52
2021/07/02 03:37:54;;;;;;;3.05;2.58;;;24.00;50.30;;;;;;5052791;28;20057;-51
2021/07/02 03:40:19;;;;;;;4.10;2.83;;;24.00;50.40;;;;;;5064665;28;20029;-53
2021/07/02 03:42:45;;;;;;;4.95;3.22;;;24.00;50.30;;;;;;5073437;28;20041;-54
2021/07/02 03:45:11;;;;;;;2.75;2.38;;;24.00;50.30;;;;;;5073747;28;20107;-54
2021/07/02 03:47:37;;;;;;;3.20;2.38;;;24.00;50.40;;;;;;5073060;28;20481;-54
2021/07/02 03:50:03;;;;;;;5.43;2.60;;;24.10;50.40;;;;;;5073735;28;20131;-48
2021/07/02 03:52:29;;;;;;;3.38;2.72;;;24.10;50.30;;;;;;5074033;28;20086;-49
2021/07/02 03:54:54;;;;;;;3.25;2.45;;;24.00;50.40;;;;;;5074873;28;20370;-51
2021/07/02 03:57:20;;;;;;;2.83;2.30;;;24.00;50.30;;;;;;5072444;28;20021;-47
2021/07/02 03:59:50;;;;;;;3.92;2.75;;;24.00;50.30;;;;;;5074880;28;20371;-49
2021/07/02 04:02:17;;;;;;;3.65;2.83;;;24.00;50.30;;;;;;5071102;28;20453;-52
2021/07/02 04:04:43;;;;;;;4.32;3.00;;;24.00;50.20;;;;;;5061752;28;20033;-46
2021/07/02 04:07:11;;;;;;;3.60;2.65;;;24.00;50.20;;;;;;5073128;28;20028;-54
2021/07/02 04:09:37;;;;;;;4.18;2.65;;;24.10;50.20;;;;;;5067095;28;20056;-53
2021/07/02 04:12:03;;;;;;;4.97;3.53;;;24.10;50.30;;;;;;5074307;28;20032;-52
2021/07/02 04:14:30;;;;;;;3.85;2.80;;;24.00;50.20;;;;;;5073894;28;20078;-52
2021/07/02 04:16:56;;;;;;;3.55;2.85;;;24.10;50.30;;;;;;5058931;28;20044;-52
2021/07/02 04:19:22;;;;;;;3.47;2.35;;;24.00;50.20;;;;;;5054144;28;20036;-49
2021/07/02 04:21:48;;;;;;;3.20;2.50;;;24.10;50.20;;;;;;5054994;28;20029;-49
2021/07/02 04:24:15;;;;;;;4.03;2.90;;;24.00;50.20;;;;;;5054741;28;20203;-56
2021/07/02 04:26:41;;;;;;;4.18;2.80;;;24.10;50.30;;;;;;5054324;28;20033;-48
2021/07/02 04:29:07;;;;;;;3.40;2.75;;;24.00;50.20;;;;;;5055985;28;20386;-48
2021/07/02 04:31:33;;;;;;;5.90;3.63;;;24.10;50.30;;;;;;5071176;28;20028;-49
2021/07/02 04:33:58;;;;;;;3.75;2.97;;;24.00;50.20;;;;;;5074417;28;20481;-47
2021/07/02 04:36:24;;;;;;;3.22;2.50;;;24.00;50.30;;;;;;5058527;28;20033;-52
2021/07/02 04:38:50;;;;;;;4.30;2.95;;;24.00;50.20;;;;;;5038084;28;20036;-54
2021/07/02 04:41:15;;;;;;;3.10;2.45;;;24.00;50.10;;;;;;5060699;28;20111;-53
2021/07/02 04:43:42;;;;;;;4.53;2.38;;;24.00;50.30;;;;;;5054569;28;20052;-47
2021/07/02 04:46:08;;;;;;;3.97;2.30;;;24.00;50.30;;;;;;5070412;28;20028;-48
2021/07/02 04:48:34;;;;;;;5.18;2.70;;;24.00;50.20;;;;;;5046472;28;20212;-51
2021/07/02 04:50:59;;;;;;;11.73;3.40;;;24.00;49.80;;;;;;5073845;28;20162;-51
2021/07/02 04:53:25;;;;;;;3.40;2.45;;;24.00;49.60;;;;;;5073664;28;20031;-48
2021/07/02 04:55:50;;;;;;;7.90;2.80;;;23.90;50.00;;;;;;5055903;28;20502;-48
2021/07/02 04:58:21;;;;;;;6.68;2.85;;;23.90;49.80;;;;;;5055411;28;20032;-55
2021/07/02 05:00:47;;;;;;;4.88;3.00;;;24.00;49.60;;;;;;5059629;28;20106;-51
2021/07/02 05:03:12;;;;;;;3.83;2.85;;;24.00;49.60;;;;;;5058972;28;20040;-49
2021/07/02 05:05:38;;;;;;;5.72;3.08;;;24.00;50.40;;;;;;5073063;28;20081;-48
2021/07/02 05:08:05;;;;;;;4.50;3.40;;;23.90;49.00;;;;;;5061898;28;20025;-52
2021/07/02 05:10:31;;;;;;;5.40;3.17;;;23.20;49.50;;;;;;5054088;28;20037;-49
2021/07/02 05:12:57;;;;;;;7.97;3.97;;;22.70;50.60;;;;;;5065043;28;20043;-51
2021/07/02 05:15:22;;;;;;;4.93;3.67;;;22.40;51.20;;;;;;5072870;28;20020;-48
2021/07/02 05:17:48;;;;;;;4.68;3.38;;;22.20;51.70;;;;;;5072261;28;20067;-49
2021/07/02 05:20:14;;;;;;;6.00;3.33;;;21.90;52.70;;;;;;5074087;28;20054;-51
2021/07/02 05:22:40;;;;;;;5.85;3.70;;;21.70;53.30;;;;;;5061969;28;20497;-47
2021/07/02 05:25:06;;;;;;;8.13;3.42;;;21.60;53.40;;;;;;5058709;28;20033;-51
2021/07/02 05:27:32;;;;;;;4.78;3.60;;;21.60;53.60;;;;;;5065169;28;20029;-50
2021/07/02 05:29:58;;;;;;;5.35;3.60;;;21.60;53.70;;;;;;5054497;28;20033;-51
2021/07/02 05:32:24;;;;;;;6.15;4.15;;;21.50;53.70;;;;;;5065528;28;20029;-47
2021/07/02 05:34:49;;;;;;;4.72;3.47;;;21.60;54.20;;;;;;5073947;28;20035;-47
2021/07/02 05:37:15;;;;;;;6.22;3.50;;;21.50;54.00;;;;;;5055348;28;20025;-46
2021/07/02 05:39:40;;;;;;;5.75;3.28;;;21.50;54.00;;;;;;5052830;28;20100;-47
2021/07/02 05:42:06;;;;;;;3.97;3.35;;;21.40;54.40;;;;;;5054398;28;20045;-53
2021/07/02 05:44:32;;;;;;;5.43;3.20;;;21.50;54.00;;;;;;5066832;28;20071;-49
2021/07/02 05:46:58;;;;;;;5.47;3.55;;;21.60;54.00;;;;;;5072848;28;20083;-49
2021/07/02 05:49:23;;;;;;;5.57;3.38;;;21.60;53.60;;;;;;5071741;28;20059;-52
2021/07/02 05:51:49;;;;;;;4.43;3.35;;;21.60;53.70;;;;;;5072829;28;20028;-53
2021/07/02 05:54:15;;;;;;;5.88;3.55;;;21.60;53.80;;;;;;5057572;28;20018;-51
2021/07/02 05:56:41;;;;;;;4.70;3.45;;;21.50;54.00;;;;;;5053532;28;20037;-49
2021/07/02 05:59:07;;;;;;;6.45;3.60;;;21.30;54.30;;;;;;5064814;28;20052;-46
2021/07/02 06:01:33;;;;;;;7.10;3.80;;;21.10;55.00;;;;;;5061714;28;20022;-47
2021/07/02 06:03:58;;;;;;;7.10;3.45;;;21.20;54.80;;;;;;5066767;28;20036;-49
2021/07/02 06:06:24;;;;;;;6.57;3.95;;;21.40;54.60;;;;;;5055068;28;20458;-54
2021/07/02 06:08:50;;;;;;;5.35;3.58;;;21.50;54.20;;;;;;5059933;28;20379;-53
2021/07/02 06:11:17;;;;;;;5.88;3.55;;;21.40;54.50;;;;;;5052507;28;20029;-49
2021/07/02 06:13:43;;;;;;;6.15;3.33;;;21.50;54.40;;;;;;5060461;28;20667;-53
2021/07/02 06:16:09;;;;;;;4.85;3.90;;;21.50;54.30;;;;;;5038187;28;20028;-52
2021/07/02 06:18:35;;;;;;;5.03;3.53;;;21.50;54.50;;;;;;5067488;28;20462;-51
2021/07/02 06:21:00;;;;;;;4.80;3.50;;;21.60;54.70;;;;;;5071247;28;20090;-51
2021/07/02 06:23:33;;;;;;;4.85;3.45;;;21.50;54.60;;;;;;5058653;28;20470;-52
2021/07/02 06:26:00;;;;;;;5.53;3.83;;;21.50;55.00;;;;;;5052726;28;20036;-51
2021/07/02 06:28:27;;;;;;;8.13;4.68;;;21.40;54.90;;;;;;5062680;28;20021;-52
2021/07/02 06:30:54;;;;;;;7.20;3.70;;;21.50;55.00;;;;;;5071993;28;20466;-54
2021/07/02 06:33:20;;;;;;;9.32;3.58;;;21.60;54.90;;;;;;5053787;28;20122;-54
2021/07/02 06:35:46;;;;;;;4.47;3.53;;;21.70;54.60;;;;;;5065088;28;20033;-50
2021/07/02 06:38:12;;;;;;;5.53;3.40;;;21.50;54.60;;;;;;5070248;28;20028;-51
2021/07/02 06:40:37;;;;;;;6.15;3.63;;;21.40;54.90;;;;;;5069924;28;20056;-51
2021/07/02 06:43:03;;;;;;;6.55;4.00;;;21.40;55.00;;;;;;5051528;28;20037;-49
2021/07/02 06:45:29;;;;;;;5.93;3.63;;;21.50;54.30;;;;;;5062577;28;20114;-50
2021/07/02 06:48:03;;;;;;;5.75;4.00;;;21.80;53.60;;;;;;5053057;28;20466;-52
2021/07/02 06:50:35;;;;;;;8.15;3.92;;;21.70;53.90;;;;;;5059523;28;20094;-51
2021/07/02 06:53:03;;;;;;;4.22;3.50;;;21.90;54.20;;;;;;5059601;28;20032;-49
2021/07/02 06:55:29;;;;;;;7.05;3.20;;;21.90;53.00;;;;;;5070562;28;20024;-52
2021/07/02 06:57:55;;;;;;;6.82;3.75;;;21.90;53.70;;;;;;5070594;28;20021;-48
2021/07/02 07:00:21;;;;;;;4.22;3.40;;;21.90;53.30;;;;;;5066410;28;20055;-49
2021/07/02 07:02:47;;;;;;;5.88;3.78;;;21.70;53.00;;;;;;5064016;28;20028;-53
2021/07/02 07:05:14;;;;;;;5.82;3.85;;;21.70;53.20;;;;;;5051918;28;20028;-49
2021/07/02 07:07:41;;;;;;;7.97;3.20;;;21.70;53.20;;;;;;5054669;28;20489;-50
2021/07/02 07:10:07;;;;;;;4.03;3.63;;;21.80;52.70;;;;;;5054485;28;20032;-53
2021/07/02 07:12:33;;;;;;;5.80;3.83;;;21.70;52.50;;;;;;5058635;28;20037;-50
2021/07/02 07:14:59;;;;;;;4.90;4.05;;;21.60;52.90;;;;;;5055623;28;20037;-52
2021/07/02 07:17:24;;;;;;;7.53;3.28;;;21.80;53.50;;;;;;5051617;28;20025;-55
2021/07/02 07:19:50;;;;;;;4.47;3.83;;;22.20;52.50;;;;;;5051557;28;20021;-53
2021/07/02 07:22:16;;;;;;;6.38;3.40;;;22.50;52.00;;;;;;5060233;28;20037;-52
2021/07/02 07:24:42;;;;;;;7.43;3.97;;;22.80;51.50;;;;;;5050352;28;20235;-48
2021/07/02 07:27:08;;;;;;;4.45;3.08;;;22.90;51.20;;;;;;5051775;28;20472;-50
2021/07/02 07:29:34;;;;;;;4.88;3.50;;;23.10;51.10;;;;;;5050988;28;20108;-50
2021/07/02 07:32:01;;;;;;;4.32;3.33;;;23.20;50.80;;;;;;5051894;28;20037;-51
2021/07/02 07:34:44;;;;;;;4.68;2.95;;;23.30;50.80;;;;;;5051552;28;20029;-48
2021/07/02 07:37:15;;;;;;;4.60;3.05;;;23.40;50.70;;;;;;5052150;28;20025;-52
2021/07/02 07:39:41;;;;;;;3.23;2.93;;;23.40;50.60;;;;;;5051527;28;20332;-51
2021/07/02 07:42:07;;;;;;;5.22;3.50;;;23.40;50.70;;;;;;5052077;28;20037;-53
2021/07/02 07:44:32;;;;;;;4.32;3.20;;;23.50;50.80;;;;;;5068018;28;20382;-50
2021/07/02 07:46:58;;;;;;;3.80;3.03;;;23.50;50.80;;;;;;5072035;28;20473;-51
2021/07/02 07:49:25;;;;;;;4.10;3.03;;;23.50;50.70;;;;;;5071521;28;20032;-54
2021/07/02 07:54:19;;;;;;;4.05;3.05;;;23.60;50.80;;;;;;5072020;28;20028;-54
2021/07/02 07:56:51;;;;;;;4.10;3.30;;;23.60;50.80;;;;;;5071312;28;20051;-54
2021/07/02 07:59:19;;;;;;;4.35;2.90;;;23.60;50.80;;;;;;5071384;28;20057;-53
2021/07/02 08:01:45;;;;;;;3.85;3.15;;;23.60;50.80;;;;;;5071257;28;20033;-54
2021/07/02 08:04:14;;;;;;;4.03;3.17;;;23.60;50.80;;;;;;5071931;28;20377;-55
2021/07/02 08:06:43;;;;;;;4.50;3.20;;;23.60;50.80;;;;;;5071381;28;20032;-51
2021/07/02 08:09:10;;;;;;;3.88;3.05;;;23.60;50.80;;;;;;5071785;28;20080;-53
2021/07/02 08:11:36;;;;;;;6.28;4.07;;;23.70;50.80;;;;;;5071273;28;20530;-53
2021/07/02 08:14:02;;;;;;;3.90;3.13;;;23.70;50.80;;;;;;5071740;28;20024;-54
2021/07/02 08:16:28;;;;;;;4.00;3.28;;;23.70;50.70;;;;;;5071181;28;20029;-53
2021/07/02 08:18:53;;;;;;;3.38;2.80;;;23.70;50.70;;;;;;5071564;28;20495;-54
2021/07/02 08:21:19;;;;;;;3.92;3.10;;;23.80;50.80;;;;;;5071875;28;20036;-50
2021/07/02 08:23:45;;;;;;;5.18;3.50;;;23.80;50.80;;;;;;5071000;28;20119;-50
2021/07/02 08:26:12;;;;;;;5.13;3.15;;;23.80;50.70;;;;;;5071868;28;20070;-52
2021/07/02 08:31:23;;;;;;;3.53;2.95;;;23.80;50.70;;;;;;5075338;28;20082;-51
2021/07/02 08:33:48;;;;;;;4.47;2.90;;;23.80;50.70;;;;;;5074558;28;20456;-49
2021/07/02 08:36:14;;;;;;;3.50;2.72;;;23.80;50.70;;;;;;5075511;28;20021;-48
2021/07/02 08:38:39;;;;;;;3.17;2.75;;;23.80;50.70;;;;;;5074431;28;20029;-50
2021/07/02 08:41:07;;;;;;;3.80;3.15;;;23.80;50.70;;;;;;5074867;28;20035;-51
2021/07/02 08:43:33;;;;;;;3.95;3.00;;;23.80;50.70;;;;;;5074334;28;20036;-52
2021/07/02 08:45:58;;;;;;;3.65;3.22;;;23.80;50.70;;;;;;5074975;28;20032;-49
2021/07/02 08:48:25;;;;;;;3.85;2.90;;;23.90;50.70;;;;;;5075037;28;20028;-50
2021/07/02 08:50:54;;;;;;;3.90;3.30;;;23.90;50.80;;;;;;5075037;28;20039;-52
2021/07/02 08:53:21;;;;;;;5.00;2.80;;;23.90;50.70;;;;;;5074955;28;20378;-52
2021/07/02 08:55:47;;;;;;;3.67;2.92;;;23.90;50.80;;;;;;5074138;28;20458;-48
2021/07/02 08:58:14;;;;;;;3.03;2.72;;;23.90;50.80;;;;;;5074699;28;20644;-48
2021/07/02 09:00:43;;;;;;;3.60;3.00;;;23.90;50.80;;;;;;5073654;28;20509;-54
2021/07/02 09:03:32;;;;;;;3.58;3.00;;;23.90;50.90;;;;;;5056815;28;20036;-48
2021/07/02 09:06:18;;;;;;;4.15;3.13;;;23.90;50.90;;;;;;5075028;28;20028;-49
2021/07/02 09:08:59;;;;;;;3.78;2.75;;;23.90;50.90;;;;;;5073996;28;20024;-48
2021/07/02 09:11:31;;;;;;;3.58;3.13;;;23.90;50.90;;;;;;5074418;28;20493;-55
2021/07/02 09:13:57;;;;;;;3.80;2.97;;;23.90;50.90;;;;;;5074178;28;20043;-53
2021/07/02 09:16:47;;;;;;;3.88;2.85;;;23.90;50.90;;;;;;5074294;28;20044;-50
2021/07/02 09:19:22;;;;;;;5.03;3.05;;;23.90;50.90;;;;;;5074639;28;20408;-51
2021/07/02 09:21:48;;;;;;;3.40;3.05;;;23.90;51.00;;;;;;5073787;28;20078;-52
2021/07/02 09:24:37;;;;;;;4.43;2.95;;;23.90;51.00;;;;;;5074383;28;20380;-53
2021/07/02 09:27:27;;;;;;;3.28;2.95;;;23.90;50.90;;;;;;5074416;28;20021;-52
2021/07/02 09:30:11;;;;;;;4.80;2.95;;;23.90;51.00;;;;;;5074625;28;20111;-51
2021/07/02 09:32:44;;;;;;;3.95;2.95;;;23.90;50.90;;;;;;5073660;28;20032;-51
2021/07/02 09:35:11;;;;;;;2.67;2.42;;;23.90;50.90;;;;;;5074063;28;20028;-49
2021/07/02 09:37:43;;;;;;;4.10;3.20;;;24.00;51.00;;;;;;5073754;28;20063;-53
2021/07/02 09:40:30;;;;;;;3.53;3.10;;;24.00;50.90;;;;;;5073312;28;20024;-48
2021/07/02 09:43:00;;;;;;;3.53;2.90;;;24.00;50.90;;;;;;5073949;28;20098;-51
2021/07/02 09:45:27;;;;;;;3.75;2.88;;;24.00;50.90;;;;;;5073700;28;20021;-57
2021/07/02 09:47:53;;;;;;;3.45;3.00;;;24.00;51.00;;;;;;5073987;28;20028;-54
2021/07/02 09:50:20;;;;;;;5.13;2.95;;;24.00;50.90;;;;;;5074003;28;20037;-52
2021/07/02 09:52:50;;;;;;;3.95;2.88;;;24.00;50.90;;;;;;5073348;28;20032;-52
2021/07/02 09:55:18;;;;;;;3.72;2.60;;;24.00;51.00;;;;;;5073830;28;20036;-53
2021/07/02 09:57:44;;;;;;;3.88;3.10;;;24.00;50.90;;;;;;5073269;28;20024;-51
2021/07/02 10:00:16;;;;;;;2.97;2.63;;;24.00;50.90;;;;;;5073422;28;20425;-49
2021/07/02 10:02:59;;;;;;;3.72;2.97;;;24.00;50.90;;;;;;5072896;28;20389;-54
2021/07/02 10:05:26;;;;;;;4.20;2.92;;;24.00;50.90;;;;;;5073699;28;20108;-50
2021/07/02 10:08:01;;;;;;;3.72;3.03;;;24.00;51.00;;;;;;5073522;28;20028;-52
2021/07/02 10:10:28;;;;;;;3.72;3.17;;;24.00;51.00;;;;;;5073211;28;20024;-56
2021/07/02 10:12:55;;;;;;;3.53;2.80;;;24.00;51.10;;;;;;5073509;28;20424;-52
2021/07/02 10:15:22;;;;;;;3.60;2.95;;;24.00;51.20;;;;;;5073455;28;20103;-53
2021/07/02 10:17:48;;;;;;;3.20;2.90;;;24.00;51.20;;;;;;5072729;28;20028;-53
2021/07/02 10:20:15;;;;;;;3.10;2.78;;;24.00;51.30;;;;;;5073016;28;20028;-50
2021/07/02 10:22:44;;;;;;;3.65;2.67;;;24.00;51.40;;;;;;5072641;28;20029;-49
2021/07/02 10:25:12;;;;;;;4.88;3.22;;;24.00;51.40;;;;;;5072942;28;20044;-54
2021/07/02 10:27:40;;;;;;;3.38;2.83;;;24.00;51.40;;;;;;5072629;28;20059;-51
2021/07/02 10:30:08;;;;;;;4.28;3.20;;;24.00;51.50;;;;;;5072554;28;20110;-53
2021/07/02 10:32:36;;;;;;;3.72;2.80;;;24.00;51.50;;;;;;5072164;28;20501;-52
2021/07/02 10:35:02;;;;;;;5.38;3.00;;;24.00;51.50;;;;;;5073084;28;20020;-55
2021/07/02 10:37:30;;;;;;;3.30;2.80;;;24.00;51.40;;;;;;5072377;28;20036;-57
2021/07/02 10:39:59;;;;;;;4.10;3.05;;;24.00;51.40;;;;;;5072856;28;20024;-53
2021/07/02 10:42:25;;;;;;;3.47;3.03;;;24.00;51.40;;;;;;5072867;28;20082;-48
2021/07/02 10:44:59;;;;;;;3.50;2.88;;;24.00;51.30;;;;;;5052727;28;20040;-52
2021/07/02 10:47:26;;;;;;;3.58;2.95;;;24.10;51.30;;;;;;5052751;28;20490;-53
2021/07/02 10:49:53;;;;;;;4.25;2.80;;;24.00;51.20;;;;;;5052092;28;20029;-50
2021/07/02 10:52:26;;;;;;;3.20;2.80;;;24.10;51.30;;;;;;5052701;28;20040;-51
2021/07/02 10:54:53;;;;;;;3.17;2.72;;;24.10;51.20;;;;;;5052113;28;20027;-55
2021/07/02 10:57:21;;;;;;;3.80;3.10;;;24.10;51.20;;;;;;5052331;28;20494;-52
2021/07/02 10:59:49;;;;;;;3.60;2.92;;;24.10;51.20;;;;;;5051812;28;20045;-54
2021/07/02 11:02:19;;;;;;;4.03;2.70;;;24.10;51.20;;;;;;5052445;28;20099;-50
2021/07/02 11:04:49;;;;;;;2.80;2.47;;;24.00;51.20;;;;;;5051959;28;20056;-53
2021/07/02 11:07:15;;;;;;;3.70;3.17;;;24.10;51.30;;;;;;5052659;28;20068;-54
2021/07/02 11:09:50;;;;;;;3.50;2.83;;;24.10;51.20;;;;;;5071059;28;20474;-52
2021/07/02 11:12:19;;;;;;;3.38;2.90;;;24.10;51.30;;;;;;5072513;28;20031;-53
2021/07/02 11:14:51;;;;;;;3.80;3.10;;;24.10;51.30;;;;;;5071825;28;20051;-54
2021/07/02 11:17:40;;;;;;;3.42;2.95;;;24.10;51.20;;;;;;5072352;28;20025;-51
2021/07/02 11:20:08;;;;;;;2.95;2.47;;;24.10;51.20;;;;;;5054031;28;20476;-56
2021/07/02 11:22:44;;;;;;;3.20;2.85;;;24.10;51.20;;;;;;5071751;28;20031;-52
2021/07/02 11:25:27;;;;;;;3.00;2.70;;;24.10;51.30;;;;;;5072286;28;20123;-55
2021/07/02 11:27:54;;;;;;;3.53;2.60;;;24.20;51.30;;;;;;5071895;28;20100;-53
2021/07/02 11:30:36;;;;;;;4.88;2.75;;;24.20;51.30;;;;;;5072501;28;20062;-53
2021/07/02 11:33:07;;;;;;;3.40;3.10;;;24.10;51.30;;;;;;5072237;28;20051;-53
2021/07/02 11:35:34;;;;;;;2.63;2.35;;;24.20;51.40;;;;;;5071699;28;20032;-49
2021/07/02 11:38:11;;;;;;;4.90;3.10;;;24.20;51.40;;;;;;5072190;28;20047;-49
2021/07/02 11:40:49;;;;;;;3.67;2.60;;;24.20;51.50;;;;;;5071367;28;20024;-48
2021/07/02 11:43:19;;;;;;;3.30;2.65;;;24.20;51.40;;;;;;5072227;28;20033;-51
2021/07/02 11:45:52;;;;;;;3.13;2.67;;;24.20;51.50;;;;;;5071533;28;20137;-53
2021/07/02 11:48:21;;;;;;;3.22;2.40;;;24.20;51.50;;;;;;5072246;28;20047;-51
2021/07/02 11:50:59;;;;;;;3.35;2.63;;;24.20;51.50;;;;;;5071319;28;20119;-54
2021/07/02 11:53:30;;;;;;;3.40;2.63;;;24.20;51.40;;;;;;5072336;28;20024;-52
2021/07/02 11:55:58;;;;;;;2.83;2.50;;;24.20;51.40;;;;;;5071960;28;20020;-51
2021/07/02 11:58:27;;;;;;;3.38;2.83;;;24.20;51.50;;;;;;5071539;28;20465;-52
2021/07/02 12:00:53;;;;;;;3.00;2.70;;;24.20;51.40;;;;;;5071464;28;20083;-53
2021/07/02 12:03:18;;;;;;;3.40;3.00;;;24.20;51.60;;;;;;5073669;28;20438;-51
2021/07/02 12:05:59;;;;;;;3.58;2.88;;;24.20;51.40;;;;;;5075202;28;20515;-50
2021/07/02 12:08:27;;;;;;;3.05;2.75;;;24.20;51.40;;;;;;5075879;28;20032;-49
2021/07/02 12:11:01;;;;;;;4.28;3.15;;;24.20;51.40;;;;;;5075209;28;20024;-53
2021/07/02 12:13:27;;;;;;;3.00;2.30;;;24.20;51.30;;;;;;5075931;28;20127;-53
2021/07/02 12:16:08;;;;;;;3.42;2.70;;;24.30;51.20;;;;;;5075002;28;20032;-53
2021/07/02 12:18:39;;;;;;;4.35;3.95;;;24.30;51.10;;;;;;5075118;28;20112;-50
2021/07/02 12:21:10;;;;;;;3.75;2.47;;;24.30;51.00;;;;;;5075473;28;20024;-54
2021/07/02 12:23:40;;;;;;;3.77;2.60;;;24.20;50.90;;;;;;5057001;28;20032;-53
2021/07/02 12:26:10;;;;;;;3.45;3.00;;;24.30;50.90;;;;;;5075637;28;20028;-49
2021/07/02 12:28:57;;;;;;;2.95;2.55;;;24.30;50.80;;;;;;5074655;28;20078;-50
2021/07/02 12:31:30;;;;;;;3.10;2.50;;;24.30;50.80;;;;;;5075355;28;20031;-50
2021/07/02 12:33:57;;;;;;;3.28;2.78;;;24.30;50.70;;;;;;5074861;28;20036;-53
2021/07/02 12:36:23;;;;;;;3.88;2.55;;;24.30;50.80;;;;;;5075258;28;20055;-53
2021/07/02 12:39:10;;;;;;;3.22;2.70;;;24.30;50.70;;;;;;5074696;28;20042;-51
2021/07/02 12:41:37;;;;;;;3.05;2.70;;;24.30;51.50;;;;;;5074594;28;20183;-52
2021/07/02 12:44:03;;;;;;;4.05;2.75;;;24.30;50.70;;;;;;5074872;28;20055;-53
2021/07/02 12:46:29;;;;;;;3.95;2.75;;;24.30;50.70;;;;;;5075058;28;20373;-53
2021/07/02 12:49:19;;;;;;;2.90;2.60;;;24.30;50.70;;;;;;5074493;28;20021;-52
2021/07/02 12:54:52;;;;;;;3.40;2.70;;;24.40;50.70;;;;;;5019743;28;20045;-52
2021/07/02 12:57:42;;;;;;;5.30;3.33;;;24.30;50.60;;;;;;5074987;28;20425;-49
2021/07/02 13:00:22;;;;;;;2.92;2.65;;;24.40;50.60;;;;;;5074835;28;20429;-53